createdAt,value
2023-03-16T00:00:17.642Z,6.88
2023-03-16T00:02:46.642Z,6.53
2023-03-16T00:05:18.875Z,5.28
2023-03-16T00:07:45.342Z,6.53
2023-03-16T00:10:13.034Z,6.40
2023-03-16T00:12:43.003Z,5.35
2023-03-16T00:15:09.921Z,7.13
2023-03-16T00:17:41.934Z,6.93
2023-03-16T00:20:31.655Z,5.13
2023-03-16T00:22:59.540Z,7.93
2023-03-16T00:25:30.231Z,5.75
2023-03-16T00:27:56.569Z,6.28
2023-03-16T00:30:25.897Z,6.22
2023-03-16T00:32:52.710Z,6.00
2023-03-16T00:35:19.522Z,7.50
2023-03-16T00:37:47.979Z,7.55
2023-03-16T00:40:17.141Z,6.32
2023-03-16T00:42:43.539Z,5.32
2023-03-16T00:45:17.550Z,7.35
2023-03-16T00:47:45.084Z,7.35
2023-03-16T00:50:13.402Z,6.40
2023-03-16T00:52:42.084Z,7.22
2023-03-16T00:55:09.010Z,9.50
2023-03-16T00:57:35.544Z,5.22
2023-03-16T01:00:02.046Z,8.60
2023-03-16T01:02:28.453Z,8.43
2023-03-16T01:04:57.731Z,7.28
2023-03-16T01:07:24.310Z,10.80
2023-03-16T01:09:55.518Z,6.85
2023-03-16T01:12:24.163Z,7.40
2023-03-16T01:14:53.312Z,8.43
2023-03-16T01:17:19.666Z,7.55
2023-03-16T01:19:48.986Z,7.60
2023-03-16T01:22:18.129Z,7.53
2023-03-16T01:24:45.500Z,7.65
2023-03-16T01:27:15.187Z,8.80
2023-03-16T01:29:44.357Z,8.13
2023-03-16T01:32:13.875Z,6.88
2023-03-16T01:34:42.408Z,6.60
2023-03-16T01:37:08.917Z,8.07
2023-03-16T01:39:37.842Z,8.60
2023-03-16T01:42:05.879Z,8.07
2023-03-16T01:44:54.788Z,6.18
2023-03-16T01:47:28.060Z,9.25
2023-03-16T01:49:56.665Z,7.75
2023-03-16T01:52:31.217Z,8.35
2023-03-16T01:55:11.506Z,7.28
2023-03-16T01:57:42.756Z,7.13
2023-03-16T02:00:17.865Z,9.27
2023-03-16T02:02:48.360Z,9.63
2023-03-16T02:05:33.566Z,9.57
2023-03-16T02:08:01.511Z,5.75
2023-03-16T02:10:29.498Z,6.78
2023-03-16T02:12:59.231Z,7.57
2023-03-16T02:15:25.797Z,10.13
2023-03-16T02:17:52.721Z,9.80
2023-03-16T02:20:36.552Z,9.35
2023-03-16T02:23:05.729Z,8.93
2023-03-16T02:25:45.523Z,10.27
2023-03-16T02:28:19.359Z,8.60
2023-03-16T02:30:47.782Z,8.68
2023-03-16T02:33:15.865Z,8.02
2023-03-16T02:35:42.312Z,7.07
2023-03-16T02:38:10.915Z,8.82
2023-03-16T02:40:37.424Z,8.75
2023-03-16T02:43:09.001Z,7.80
2023-03-16T02:45:41.602Z,8.48
2023-03-16T02:48:12.286Z,7.55
2023-03-16T02:50:44.569Z,7.28
2023-03-16T02:53:10.901Z,9.13
2023-03-16T02:55:37.235Z,7.22
2023-03-16T02:58:06.336Z,9.00
2023-03-16T03:00:43.361Z,9.00
2023-03-16T03:03:10.180Z,10.10
2023-03-16T03:05:39.042Z,7.72
2023-03-16T03:08:08.946Z,8.63
2023-03-16T03:10:35.598Z,8.73
2023-03-16T03:13:04.671Z,9.25
2023-03-16T03:15:33.988Z,8.77
2023-03-16T03:18:00.645Z,7.35
2023-03-16T03:20:32.950Z,6.40
2023-03-16T03:22:59.406Z,9.15
2023-03-16T03:25:25.772Z,7.88
2023-03-16T03:27:52.530Z,8.20
2023-03-16T03:30:21.337Z,9.43
2023-03-16T03:32:48.340Z,7.47
2023-03-16T03:35:15.829Z,7.35
2023-03-16T03:37:44.997Z,10.38
2023-03-16T03:40:14.581Z,6.75
2023-03-16T03:42:42.094Z,9.27
2023-03-16T03:45:09.752Z,7.90
2023-03-16T03:47:36.173Z,8.23
2023-03-16T03:50:02.519Z,8.95
2023-03-16T03:52:38.555Z,9.55
2023-03-16T03:55:10.775Z,8.90
2023-03-16T03:57:37.247Z,7.63
2023-03-16T04:00:05.866Z,8.82
2023-03-16T04:02:32.298Z,10.23
2023-03-16T04:04:58.707Z,9.32
2023-03-16T04:07:25.121Z,8.55
2023-03-16T04:09:51.446Z,8.18
2023-03-16T04:12:17.773Z,8.55
2023-03-16T04:14:44.116Z,10.52
2023-03-16T04:17:10.613Z,7.63
2023-03-16T04:19:37.159Z,9.27
2023-03-16T04:22:06.323Z,9.25
2023-03-16T04:24:32.680Z,10.88
2023-03-16T04:27:01.182Z,9.23
2023-03-16T04:29:29.824Z,8.65
2023-03-16T04:31:58.658Z,8.13
2023-03-16T04:34:25.258Z,9.60
2023-03-16T04:36:52.532Z,8.80
2023-03-16T04:39:21.820Z,9.63
2023-03-16T04:41:48.785Z,7.22
2023-03-16T04:44:15.167Z,9.43
2023-03-16T04:46:41.517Z,9.88
2023-03-16T04:49:16.316Z,9.27
2023-03-16T04:51:44.164Z,9.68
2023-03-16T04:54:12.899Z,8.93
2023-03-16T04:56:39.241Z,8.25
2023-03-16T04:59:05.615Z,9.65
2023-03-16T05:01:35.576Z,9.68
2023-03-16T05:04:01.917Z,7.22
2023-03-16T05:06:29.021Z,10.48
2023-03-16T05:08:55.532Z,8.07
2023-03-16T05:11:21.917Z,8.13
2023-03-16T05:13:49.487Z,11.10
2023-03-16T05:16:18.406Z,9.30
2023-03-16T05:18:48.339Z,8.02
2023-03-16T05:21:14.943Z,12.57
2023-03-16T05:23:41.284Z,7.13
2023-03-16T05:26:10.110Z,8.68
2023-03-16T05:28:39.212Z,8.25
2023-03-16T05:31:06.122Z,7.75
2023-03-16T05:33:32.604Z,8.68
2023-03-16T05:35:58.911Z,9.02
2023-03-16T05:38:25.643Z,8.98
2023-03-16T05:40:52.730Z,7.38
2023-03-16T05:43:25.088Z,8.65
2023-03-16T05:45:51.432Z,7.68
2023-03-16T05:48:20.827Z,7.38
2023-03-16T05:50:47.829Z,9.07
2023-03-16T05:53:14.355Z,8.10
2023-03-16T05:55:41.019Z,8.63
2023-03-16T05:58:07.453Z,8.75
2023-03-16T06:00:36.604Z,7.35
2023-03-16T06:03:03.060Z,8.38
2023-03-16T06:05:31.790Z,7.22
2023-03-16T06:08:00.635Z,8.45
2023-03-16T06:10:30.061Z,12.50
2023-03-16T06:12:58.453Z,7.93
2023-03-16T06:15:26.038Z,8.05
2023-03-16T06:17:57.225Z,7.82
2023-03-16T06:20:23.842Z,9.57
2023-03-16T06:22:50.774Z,5.75
2023-03-16T06:25:21.449Z,6.47
2023-03-16T06:27:49.350Z,8.02
2023-03-16T06:30:16.847Z,7.95
2023-03-16T06:32:43.563Z,4.47
2023-03-16T06:35:12.155Z,5.93
2023-03-16T06:37:38.514Z,8.50
2023-03-16T06:40:05.521Z,6.35
2023-03-16T06:42:31.866Z,7.60
2023-03-16T06:44:58.243Z,6.93
2023-03-16T06:47:27.586Z,7.28
2023-03-16T06:49:54.023Z,6.93
2023-03-16T06:52:21.252Z,8.88
2023-03-16T06:54:52.946Z,7.20
2023-03-16T06:57:22.463Z,7.03
2023-03-16T06:59:48.807Z,8.02
2023-03-16T07:02:15.634Z,6.72
2023-03-16T07:04:42.260Z,6.22
2023-03-16T07:07:09.912Z,7.00
2023-03-16T07:09:40.375Z,7.70
2023-03-16T07:12:08.125Z,8.20
2023-03-16T07:14:35.775Z,7.57
2023-03-16T07:17:02.630Z,5.82
2023-03-16T07:19:29.305Z,8.20
2023-03-16T07:21:55.667Z,6.75
2023-03-16T07:24:23.805Z,8.07
2023-03-16T07:26:50.538Z,6.68
2023-03-16T07:29:21.164Z,7.25
2023-03-16T07:31:49.018Z,7.07
2023-03-16T07:34:15.616Z,7.15
2023-03-16T07:36:41.998Z,6.70
2023-03-16T07:39:08.388Z,5.75
2023-03-16T07:41:38.085Z,6.78
2023-03-16T07:44:04.570Z,7.65
2023-03-16T07:46:31.069Z,5.68
2023-03-16T07:49:04.807Z,9.95
2023-03-16T07:51:31.341Z,7.25
2023-03-16T07:53:57.748Z,8.13
2023-03-16T07:56:29.709Z,8.00
2023-03-16T07:58:57.950Z,7.65
2023-03-16T08:01:24.457Z,8.88
2023-03-16T08:03:59.548Z,6.70
2023-03-16T08:06:26.285Z,7.68
2023-03-16T08:08:55.909Z,7.90
2023-03-16T08:11:22.380Z,9.60
2023-03-16T08:13:51.786Z,8.70
2023-03-16T08:16:20.783Z,6.85
2023-03-16T08:18:50.850Z,6.72
2023-03-16T08:21:26.033Z,8.75
2023-03-16T08:23:52.371Z,7.35
2023-03-16T08:26:25.270Z,9.80
2023-03-16T08:28:55.307Z,6.43
2023-03-16T08:31:22.173Z,7.20
2023-03-16T08:33:51.459Z,6.43
2023-03-16T08:36:19.952Z,6.70
2023-03-16T08:38:59.923Z,7.25
2023-03-16T08:41:35.975Z,9.70
2023-03-16T08:44:07.775Z,6.53
2023-03-16T08:46:36.798Z,5.50
2023-03-16T08:49:04.364Z,9.23
2023-03-16T08:51:30.693Z,8.57
2023-03-16T08:53:57.091Z,9.32
2023-03-16T08:56:23.614Z,7.85
2023-03-16T08:58:51.556Z,5.45
2023-03-16T09:01:20.731Z,6.40
2023-03-16T09:03:47.227Z,5.53
2023-03-16T09:06:18.747Z,7.53
2023-03-16T09:08:47.048Z,6.30
2023-03-16T09:11:22.757Z,8.45
2023-03-16T09:13:53.168Z,6.53
2023-03-16T09:16:20.356Z,5.53
2023-03-16T09:18:49.896Z,5.95
2023-03-16T09:21:17.381Z,7.82
2023-03-16T09:23:53.120Z,6.78
2023-03-16T09:26:19.959Z,6.82
2023-03-16T09:28:48.555Z,6.00
2023-03-16T09:31:19.474Z,7.22
2023-03-16T09:33:46.396Z,8.32
2023-03-16T09:36:13.330Z,7.18
2023-03-16T09:38:41.455Z,7.05
2023-03-16T09:41:15.874Z,5.70
2023-03-16T09:44:22.916Z,8.38
2023-03-16T09:46:53.758Z,6.45
2023-03-16T09:49:25.009Z,4.53
2023-03-16T09:52:00.615Z,6.63
2023-03-16T09:54:34.391Z,6.10
2023-03-16T09:57:01.090Z,6.72
2023-03-16T09:59:27.736Z,6.38
2023-03-16T10:02:44.191Z,5.38
2023-03-16T10:05:16.470Z,5.97
2023-03-16T10:07:54.024Z,8.00
2023-03-16T10:10:55.713Z,5.15
2023-03-16T10:13:44.114Z,6.80
2023-03-16T10:16:32.749Z,5.75
2023-03-16T10:19:11.105Z,5.95
2023-03-16T10:21:41.014Z,7.22
2023-03-16T10:24:23.575Z,5.85
2023-03-16T10:26:56.730Z,5.32
2023-03-16T10:29:23.429Z,5.28
2023-03-16T10:31:50.262Z,7.22
2023-03-16T10:34:22.469Z,6.15
2023-03-16T10:36:49.824Z,4.80
2023-03-16T10:39:18.706Z,5.50
2023-03-16T10:41:55.527Z,6.43
2023-03-16T10:44:24.739Z,5.82
2023-03-16T10:47:03.079Z,7.38
2023-03-16T10:49:35.549Z,4.75
2023-03-16T10:52:12.758Z,5.10
2023-03-16T10:54:40.835Z,6.05
2023-03-16T10:57:54.229Z,6.43
2023-03-16T11:00:42.636Z,6.05
2023-03-16T11:03:26.529Z,5.75
2023-03-16T11:06:00.969Z,4.82
2023-03-16T11:08:37.639Z,5.63
2023-03-16T11:11:17.745Z,4.22
2023-03-16T11:13:48.941Z,4.95
2023-03-16T11:16:24.844Z,9.45
2023-03-16T11:18:58.718Z,5.45
2023-03-16T11:22:04.527Z,5.28
2023-03-16T11:24:40.796Z,6.40
2023-03-16T11:27:18.239Z,5.13
2023-03-16T11:30:03.466Z,4.75
2023-03-16T11:32:34.638Z,6.88
2023-03-16T11:35:58.472Z,6.68
2023-03-16T11:38:37.490Z,5.50
2023-03-16T11:41:13.599Z,6.03
2023-03-16T11:43:57.534Z,5.30
2023-03-16T11:46:41.366Z,6.05
2023-03-16T11:49:36.202Z,5.93
2023-03-16T11:52:20.762Z,6.22
2023-03-16T11:55:04.676Z,7.25
2023-03-16T11:57:46.101Z,5.78
2023-03-16T12:00:36.826Z,5.18
2023-03-16T12:03:25.655Z,5.78
2023-03-16T12:05:56.914Z,3.42
2023-03-16T12:08:49.658Z,4.65
2023-03-16T12:11:50.384Z,3.88
2023-03-16T12:14:42.842Z,6.32
2023-03-16T12:17:24.119Z,4.95
2023-03-16T12:20:09.889Z,4.65
2023-03-16T12:22:46.777Z,4.57
2023-03-16T12:25:19.706Z,4.03
2023-03-16T12:27:49.896Z,3.85
2023-03-16T12:30:54.232Z,4.57
2023-03-16T12:33:46.562Z,4.90
2023-03-16T12:36:15.953Z,3.75
2023-03-16T12:38:52.400Z,5.60
2023-03-16T12:41:52.934Z,4.00
2023-03-16T12:44:26.520Z,3.72
2023-03-16T12:47:08.932Z,3.35
2023-03-16T12:49:42.622Z,7.78
2023-03-16T12:52:11.566Z,4.72
2023-03-16T12:55:06.504Z,3.10
2023-03-16T12:57:33.195Z,3.95
2023-03-16T13:00:01.679Z,3.97
2023-03-16T13:02:37.306Z,3.00
2023-03-16T13:05:15.397Z,3.47
2023-03-16T13:07:50.786Z,4.43
2023-03-16T13:10:21.060Z,3.28
2023-03-16T13:12:54.533Z,3.70
2023-03-16T13:15:22.194Z,2.53
2023-03-16T13:18:05.379Z,4.57
2023-03-16T13:20:36.295Z,3.63
2023-03-16T13:23:20.020Z,3.28
2023-03-16T13:26:13.713Z,3.88
2023-03-16T13:28:41.752Z,3.53
2023-03-16T13:31:28.933Z,3.38
2023-03-16T13:33:56.848Z,4.45
2023-03-16T13:36:28.274Z,3.67
2023-03-16T13:39:05.615Z,4.13
2023-03-16T13:41:35.372Z,2.35
2023-03-16T13:44:05.158Z,2.92
2023-03-16T13:46:33.907Z,3.00
2023-03-16T13:49:00.299Z,4.57
2023-03-16T13:51:38.618Z,3.08
2023-03-16T13:54:17.904Z,3.15
2023-03-16T13:56:44.591Z,3.28
2023-03-16T13:59:27.194Z,3.00
2023-03-16T14:01:59.221Z,2.97
2023-03-16T14:04:30.774Z,4.15
2023-03-16T14:06:59.685Z,4.43
2023-03-16T14:09:35.248Z,2.20
2023-03-16T14:12:04.647Z,3.28
2023-03-16T14:14:38.739Z,3.38
2023-03-16T14:17:16.458Z,4.57
2023-03-16T14:19:49.281Z,5.32
2023-03-16T14:22:34.045Z,3.17
2023-03-16T14:25:26.660Z,3.47
2023-03-16T14:28:01.734Z,2.60
2023-03-16T14:30:30.010Z,3.72
2023-03-16T14:33:05.524Z,2.28
2023-03-16T14:35:44.337Z,3.47
2023-03-16T14:38:29.177Z,5.28
2023-03-16T14:41:18.174Z,4.47
2023-03-16T14:43:59.254Z,4.05
2023-03-16T14:46:34.303Z,5.20
2023-03-16T14:49:43.229Z,4.68
2023-03-16T14:52:36.416Z,2.95
2023-03-16T14:55:17.414Z,2.30
2023-03-16T14:57:49.225Z,3.85
2023-03-16T15:00:16.480Z,3.13
2023-03-16T15:03:04.082Z,3.70
2023-03-16T15:05:40.675Z,4.85
2023-03-16T15:08:14.280Z,3.58
2023-03-16T15:10:43.898Z,3.28
2023-03-16T15:13:25.605Z,4.13
2023-03-16T15:15:53.039Z,10.13
2023-03-16T15:18:25.128Z,2.50
2023-03-16T15:20:55.634Z,3.22
2023-03-16T15:23:23.192Z,3.85
2023-03-16T15:25:52.980Z,3.35
2023-03-16T15:28:30.927Z,5.00
2023-03-16T15:30:59.738Z,5.93
2023-03-16T15:33:29.315Z,2.90
2023-03-16T15:35:58.116Z,4.30
2023-03-16T15:38:33.421Z,3.72
2023-03-16T15:41:05.727Z,3.88
2023-03-16T15:43:32.969Z,2.00
2023-03-16T15:46:00.071Z,3.40
2023-03-16T15:48:27.837Z,3.38
2023-03-16T15:51:01.101Z,3.13
2023-03-16T15:53:35.620Z,2.60
2023-03-16T15:56:05.678Z,2.97
2023-03-16T15:58:37.082Z,2.08
2023-03-16T16:01:06.500Z,4.32
2023-03-16T16:03:35.844Z,3.20
2023-03-16T16:06:02.390Z,3.45
2023-03-16T16:08:29.095Z,3.35
2023-03-16T16:10:56.222Z,3.35
2023-03-16T16:13:43.101Z,2.60
2023-03-16T16:16:16.954Z,3.22
2023-03-16T16:18:50.143Z,3.63
2023-03-16T16:21:39.570Z,2.97
2023-03-16T16:24:06.832Z,2.53
2023-03-16T16:26:50.967Z,3.13
2023-03-16T16:29:31.930Z,2.80
2023-03-16T16:32:01.349Z,3.47
2023-03-16T16:34:34.494Z,3.10
2023-03-16T16:37:02.796Z,2.75
2023-03-16T16:39:31.798Z,3.25
2023-03-16T16:42:02.535Z,3.00
2023-03-16T16:44:33.412Z,3.20
2023-03-16T16:47:03.533Z,4.13
2023-03-16T16:49:32.949Z,3.78
2023-03-16T16:52:27.547Z,2.80
2023-03-16T16:54:57.073Z,3.05
2023-03-16T16:57:26.253Z,2.67
2023-03-16T16:59:55.081Z,3.80
2023-03-16T17:02:45.584Z,2.70
2023-03-16T17:05:26.605Z,2.33
2023-03-16T17:07:53.540Z,4.88
2023-03-16T17:10:27.802Z,2.72
2023-03-16T17:12:58.010Z,3.97
2023-03-16T17:15:34.994Z,2.78
2023-03-16T17:18:06.412Z,2.25
2023-03-16T17:20:32.773Z,3.50
2023-03-16T17:23:00.900Z,2.97
2023-03-16T17:25:28.582Z,3.92
2023-03-16T17:27:56.986Z,4.07
2023-03-16T17:30:30.640Z,2.72
2023-03-16T17:33:03.822Z,3.17
2023-03-16T17:35:37.080Z,2.75
2023-03-16T17:38:03.645Z,3.33
2023-03-16T17:40:33.298Z,3.72
2023-03-16T17:42:59.740Z,4.10
2023-03-16T17:45:27.869Z,5.30
2023-03-16T17:47:58.881Z,5.18
2023-03-16T17:50:27.588Z,6.40
2023-03-16T17:52:54.089Z,3.15
2023-03-16T17:55:23.275Z,4.00
2023-03-16T17:57:54.754Z,4.07
2023-03-16T18:00:38.277Z,4.15
2023-03-16T18:03:16.713Z,3.40
2023-03-16T18:05:44.512Z,3.35
2023-03-16T18:08:25.327Z,4.65
2023-03-16T18:11:01.636Z,4.60
2023-03-16T18:13:28.321Z,6.75
2023-03-16T18:15:55.847Z,5.72
2023-03-16T18:18:32.918Z,4.97
2023-03-16T18:20:59.535Z,4.75
2023-03-16T18:23:46.223Z,4.05
2023-03-16T18:26:18.521Z,6.78
2023-03-16T18:28:46.013Z,4.28
2023-03-16T18:31:23.207Z,5.63
2023-03-16T18:33:55.850Z,7.47
2023-03-16T18:36:30.209Z,6.57
2023-03-16T18:38:58.698Z,3.35
2023-03-16T18:41:30.387Z,4.50
2023-03-16T18:44:02.048Z,3.65
2023-03-16T18:46:31.567Z,4.93
2023-03-16T18:49:19.759Z,5.22
2023-03-16T18:51:53.951Z,4.63
2023-03-16T18:54:26.436Z,5.05
2023-03-16T18:56:53.237Z,5.30
2023-03-16T18:59:25.898Z,3.17
2023-03-16T19:01:53.193Z,4.00
2023-03-16T19:04:26.433Z,3.67
2023-03-16T19:06:54.508Z,5.97
2023-03-16T19:09:29.787Z,3.60
2023-03-16T19:11:59.470Z,5.13
2023-03-16T19:14:32.811Z,4.78
2023-03-16T19:17:01.730Z,5.18
2023-03-16T19:19:28.114Z,5.80
2023-03-16T19:21:57.360Z,3.92
2023-03-16T19:24:43.239Z,5.00
2023-03-16T19:27:26.030Z,5.18
2023-03-16T19:29:54.379Z,3.65
2023-03-16T19:32:23.910Z,3.17
2023-03-16T19:34:50.285Z,3.45
2023-03-16T19:37:16.985Z,4.40
2023-03-16T19:39:45.509Z,6.45
2023-03-16T19:42:22.023Z,4.30
2023-03-16T19:47:26.705Z,3.75
2023-03-16T19:49:53.286Z,6.22
2023-03-16T19:52:19.836Z,7.22
2023-03-16T19:54:54.743Z,5.18
2023-03-16T19:57:21.244Z,7.80
2023-03-16T20:00:02.942Z,4.88
2023-03-16T20:02:38.578Z,5.70
2023-03-16T20:05:08.420Z,6.35
2023-03-16T20:07:34.773Z,6.78
2023-03-16T20:10:01.318Z,4.90
2023-03-16T20:12:31.306Z,5.18
2023-03-16T20:14:58.238Z,4.97
2023-03-16T20:17:27.713Z,5.55
2023-03-16T20:19:55.568Z,6.32
2023-03-16T20:22:25.919Z,6.60
2023-03-16T20:24:54.975Z,4.65
2023-03-16T20:27:25.816Z,5.75
2023-03-16T20:29:55.339Z,5.03
2023-03-16T20:32:27.712Z,6.68
2023-03-16T20:34:55.391Z,5.28
2023-03-16T20:37:28.847Z,4.93
2023-03-16T20:39:57.920Z,5.05
2023-03-16T20:42:33.858Z,5.78
2023-03-16T20:45:01.859Z,4.50
2023-03-16T20:47:28.210Z,4.28
2023-03-16T20:49:55.748Z,5.18
2023-03-16T20:52:30.966Z,5.80
2023-03-16T20:54:57.587Z,4.93
2023-03-16T20:57:26.226Z,4.22
2023-03-16T20:59:58.438Z,5.65
2023-03-16T21:02:28.873Z,4.78
2023-03-16T21:04:58.974Z,5.10
2023-03-16T21:07:25.842Z,7.20
2023-03-16T21:09:54.621Z,4.70
2023-03-16T21:12:26.159Z,5.85
2023-03-16T21:14:55.896Z,4.70
2023-03-16T21:17:26.957Z,4.03
2023-03-16T21:19:55.865Z,4.47
2023-03-16T21:22:33.224Z,5.68
2023-03-16T21:24:59.590Z,5.85
2023-03-16T21:27:31.762Z,5.47
2023-03-16T21:30:03.837Z,5.57
2023-03-16T21:32:30.322Z,5.00
2023-03-16T21:34:59.727Z,3.78
2023-03-16T21:37:32.842Z,4.93
2023-03-16T21:40:01.244Z,4.32
2023-03-16T21:42:27.939Z,5.32
2023-03-16T21:44:54.275Z,3.47
2023-03-16T21:47:29.039Z,5.40
2023-03-16T21:49:56.319Z,4.15
2023-03-16T21:52:26.777Z,4.38
2023-03-16T21:54:53.642Z,5.00
2023-03-16T21:57:20.785Z,4.55
2023-03-16T21:59:51.651Z,4.75
2023-03-16T22:02:22.637Z,5.15
2023-03-16T22:04:52.173Z,3.20
2023-03-16T22:07:18.984Z,3.67
2023-03-16T22:09:45.524Z,5.25
2023-03-16T22:12:14.031Z,2.92
2023-03-16T22:14:41.288Z,3.80
2023-03-16T22:17:19.977Z,3.13
2023-03-16T22:19:46.345Z,3.33
2023-03-16T22:22:17.465Z,3.03
2023-03-16T22:24:44.022Z,4.20
2023-03-16T22:27:19.910Z,4.80
2023-03-16T22:29:49.503Z,2.75
2023-03-16T22:32:20.024Z,3.78
2023-03-16T22:34:51.389Z,3.50
2023-03-16T22:37:24.191Z,4.32
2023-03-16T22:39:52.287Z,3.33
2023-03-16T22:42:41.601Z,3.45
2023-03-16T22:45:21.854Z,4.97
2023-03-16T22:47:51.351Z,3.83
2023-03-16T22:50:20.054Z,3.53
2023-03-16T22:52:55.036Z,3.38
2023-03-16T22:55:31.277Z,3.92
2023-03-16T22:58:21.691Z,3.10
2023-03-16T23:00:48.191Z,6.47
2023-03-16T23:03:20.542Z,4.80
2023-03-16T23:05:47.888Z,9.13
2023-03-16T23:08:17.789Z,4.13
2023-03-16T23:10:45.215Z,4.20
2023-03-16T23:13:27.132Z,7.18
2023-03-16T23:15:55.843Z,3.97
2023-03-16T23:18:27.596Z,5.20
2023-03-16T23:20:58.301Z,3.35
2023-03-16T23:23:25.016Z,6.20
2023-03-16T23:25:51.459Z,4.45
2023-03-16T23:28:24.167Z,4.63
2023-03-16T23:30:50.710Z,4.43
2023-03-16T23:33:20.203Z,4.10
2023-03-16T23:35:47.053Z,4.55
2023-03-16T23:38:16.298Z,5.70
2023-03-16T23:40:46.415Z,4.78
2023-03-16T23:43:12.868Z,5.25
2023-03-16T23:45:44.934Z,5.20
2023-03-16T23:48:32.603Z,5.32
2023-03-16T23:51:04.113Z,4.85
2023-03-16T23:53:30.518Z,7.03
2023-03-16T23:55:57.524Z,4.97
2023-03-16T23:58:26.982Z,3.95
